CheckWX is a tool to help pilots better visualize weather data.  It is not intended as a substitute for an official pre-flight weather briefing.

18:33:28 UTC

3T5 METAR
Fayette Regional Air Center Airport
La Grange, Texas, USA
Current

18 mins ago

K3T5 221815Z AUTO 35005KT 3/4SM -DZ OVC002 12/12 A2995 RMK AO2 T01210121
Observed
Feb-22 @ 18:15 UTC
Wind
  • 350° at 5 KTS
Visibility
3/4 SM
Flight Rules
LIFR
Conditions
Light Drizzle
Cloud Levels
  • Overcast at 200' AGL
Temperature
12°C / 54°F
Dewpoint
12°C / 54°F
Humidity
100%
Altimeter
29.95" Hg
Pressure
1014.22 hPa
Previous

38 mins ago

K3T5 221755Z AUTO 34006KT 1/2SM -DZ OVC002 12/12 A2995 RMK AO2 T01200120 10121 20102
Observed
Feb-22 @ 17:55 UTC
Wind
  • 340° at 6 KTS
Visibility
1/2 SM
Flight Rules
LIFR
Conditions
Light Drizzle
Cloud Levels
  • Overcast at 200' AGL
Temperature
12°C / 54°F
Dewpoint
12°C / 54°F
Humidity
100%
Altimeter
29.95" Hg
Pressure
1014.22 hPa
Previous

58 mins ago

K3T5 221735Z AUTO 33005KT 1SM DZ OVC002 12/12 A2996 RMK AO2 T01190119
Observed
Feb-22 @ 17:35 UTC
Wind
  • 330° at 5 KTS
Visibility
1 SM
Flight Rules
LIFR
Conditions
Drizzle
Cloud Levels
  • Overcast at 200' AGL
Temperature
12°C / 54°F
Dewpoint
12°C / 54°F
Humidity
100%
Altimeter
29.96" Hg
Pressure
1014.52 hPa